Time;durP1;ratioP1;P1;durP2;ratioP2;P2;SDS_P1;SDS_P2;PMS_P1;PMS_P2;Temp;Humidity;BMP_temperature;BMP_pressure;BME280_temperature;BME280_humidity;BME280_pressure;Samples;Min_cycle;Max_cycle;Signal;HPM_P1;HPM_P2
2021/10/21 00:01:54;;;;;;;;;12.00;12.00;;;;;11.02;72.45;102070.38;4934942;29;11041;-69
2021/10/21 00:04:24;;;;;;;;;9.25;9.25;;;;;11.02;72.54;102066.78;4935615;29;11197;-68
2021/10/21 00:07:19;;;;;;;;;9.75;9.75;;;;;11.11;72.66;102070.53;4929575;29;11099;-68
2021/10/21 00:10:16;;;;;;;;;9.25;9.25;;;;;11.02;73.57;102061.25;4934909;29;11116;-68
2021/10/21 00:13:12;;;;;;;;;9.00;9.00;;;;;11.09;73.32;102061.72;4934596;29;11181;-69
2021/10/21 00:15:53;;;;;;;;;8.25;8.25;;;;;11.16;73.50;102056.63;4933156;29;11136;-69
2021/10/21 00:18:50;;;;;;;;;9.00;8.50;;;;;10.92;75.04;102050.34;4934398;29;11062;-68
2021/10/21 00:21:48;;;;;;;;;7.75;7.75;;;;;11.11;73.88;102054.72;4934500;29;11099;-68
2021/10/21 00:24:44;;;;;;;;;11.00;11.00;;;;;11.11;74.37;102040.06;4934389;29;11051;-69
2021/10/21 00:27:39;;;;;;;;;10.25;10.25;;;;;11.01;75.01;102038.28;4921056;29;11046;-68
2021/10/21 00:30:08;;;;;;;;;8.00;8.00;;;;;11.20;74.22;102038.28;4935778;29;10982;-68
2021/10/21 00:33:03;;;;;;;;;9.00;9.00;;;;;11.10;75.30;102030.13;4934343;29;10807;-69
2021/10/21 00:35:59;;;;;;;;;12.50;12.50;;;;;10.81;77.04;102028.38;4935160;29;11030;-68
2021/10/21 00:38:42;;;;;;;;;13.50;11.75;;;;;10.86;77.34;102030.22;4934269;29;11075;-68
2021/10/21 00:41:38;;;;;;;;;13.00;12.25;;;;;10.98;76.83;102030.59;4921928;29;11234;-68
2021/10/21 00:44:34;;;;;;;;;13.50;13.00;;;;;10.92;77.46;102017.13;4934127;29;11066;-68
2021/10/21 00:47:30;;;;;;;;;13.00;13.00;;;;;10.95;77.46;102022.88;4918221;29;11088;-68
2021/10/21 00:50:26;;;;;;;;;14.25;14.25;;;;;10.99;77.28;102018.41;4920511;29;11054;-68
2021/10/21 00:53:21;;;;;;;;;12.50;12.50;;;;;10.98;77.82;102015.94;4935197;29;11381;-68
2021/10/21 00:56:18;;;;;;;;;13.75;13.75;;;;;10.95;77.80;102016.53;4937745;29;11249;-68
2021/10/21 00:59:14;;;;;;;;;14.75;14.75;;;;;11.02;77.82;102006.72;4937476;29;11076;-68
2021/10/21 01:02:10;;;;;;;;;13.50;13.50;;;;;10.98;77.94;102011.22;4937852;29;12100;-69
2021/10/21 01:05:07;;;;;;;;;16.75;16.75;;;;;10.99;77.83;101993.50;4924927;29;11150;-68
2021/10/21 01:08:03;;;;;;;;;7.00;7.00;;;;;10.98;78.21;101994.63;4937677;29;11836;-68
2021/10/21 01:10:52;;;;;;;;;8.50;8.50;;;;;10.99;78.46;101989.91;4938575;29;11171;-69
2021/10/21 01:13:48;;;;;;;;;16.00;15.00;;;;;11.00;78.50;101991.53;4937240;29;11096;-69
2021/10/21 01:16:44;;;;;;;;;15.25;15.25;;;;;10.93;79.20;101991.09;4937452;29;11248;-69
2021/10/21 01:19:40;;;;;;;;;8.50;8.50;;;;;10.84;79.43;101982.66;4937476;29;11435;-69
2021/10/21 01:22:35;;;;;;;;;14.25;13.50;;;;;10.92;79.34;101978.38;4936832;29;11271;-68
2021/10/21 01:25:31;;;;;;;;;12.00;12.00;;;;;10.95;78.98;101980.53;4937273;29;11315;-68
2021/10/21 01:28:27;;;;;;;;;15.75;15.50;;;;;10.98;78.83;101986.31;4936904;29;11204;-68
2021/10/21 01:31:22;;;;;;;;;13.00;13.00;;;;;10.88;79.37;101974.56;4937025;29;11409;-69
2021/10/21 01:34:18;;;;;;;;;14.75;14.00;;;;;10.84;78.88;101982.66;4937065;29;11284;-69
2021/10/21 01:37:13;;;;;;;;;17.50;17.50;;;;;10.94;79.08;101976.13;4936834;29;11160;-68
2021/10/21 01:40:11;;;;;;;;;19.50;17.00;;;;;10.98;78.94;101989.09;4936902;29;11601;-69
2021/10/21 01:43:12;;;;;;;;;11.00;11.00;;;;;10.95;79.46;101986.06;4936516;29;11527;-68
2021/10/21 01:45:58;;;;;;;;;13.00;13.00;;;;;10.80;80.60;101993.50;4920822;29;11160;-69
2021/10/21 01:48:26;;;;;;;;;15.50;15.50;;;;;10.92;80.17;101989.47;4920813;29;11139;-68
2021/10/21 01:51:22;;;;;;;;;16.25;15.25;;;;;10.94;79.76;101985.25;4924023;29;11152;-68
2021/10/21 01:54:18;;;;;;;;;16.00;16.00;;;;;10.97;79.74;101972.78;4918382;29;11142;-69
2021/10/21 01:57:14;;;;;;;;;15.25;15.25;;;;;10.91;80.69;101980.34;4917051;29;11613;-69
2021/10/21 02:00:15;;;;;;;;;15.00;15.00;;;;;10.86;81.15;101984.00;4921066;29;11607;-69
2021/10/21 02:03:11;;;;;;;;;15.75;15.75;;;;;10.91;81.17;101990.59;4936341;29;11536;-68
2021/10/21 02:06:06;;;;;;;;;13.75;13.75;;;;;10.85;81.47;101985.13;4936490;29;11567;-68
2021/10/21 02:09:02;;;;;;;;;17.25;17.25;;;;;10.88;81.64;101989.22;4936250;29;11401;-69
2021/10/21 02:11:57;;;;;;;;;14.75;14.50;;;;;10.90;81.56;101987.00;4936423;29;12274;-68
2021/10/21 02:14:53;;;;;;;;;14.00;14.00;;;;;10.94;81.64;101989.97;4935999;29;11522;-69
2021/10/21 02:17:49;;;;;;;;;18.25;18.25;;;;;10.95;81.52;101986.91;4936157;29;11454;-68
2021/10/21 02:20:44;;;;;;;;;18.75;18.00;;;;;10.95;81.60;101983.31;4936016;29;11609;-69
2021/10/21 02:23:12;;;;;;;;;16.25;16.25;;;;;10.92;81.63;101978.38;4936880;29;11189;-68
2021/10/21 02:26:07;;;;;;;;;14.25;14.25;;;;;11.01;80.92;101987.66;4930022;29;11537;-69
2021/10/21 02:29:03;;;;;;;;;18.75;18.75;;;;;10.87;81.74;101976.50;4936063;29;11557;-69
2021/10/21 02:31:44;;;;;;;;;19.00;18.25;;;;;10.99;81.08;101967.75;4936998;29;11512;-68
2021/10/21 02:34:40;;;;;;;;;19.00;19.00;;;;;10.97;81.32;101965.28;4935888;29;11527;-69
2021/10/21 02:37:36;;;;;;;;;21.00;21.00;;;;;10.91;81.27;101955.44;4935906;29;11526;-69
2021/10/21 02:40:31;;;;;;;;;13.00;13.00;;;;;10.90;81.61;101961.28;4936032;29;11531;-69
2021/10/21 02:43:27;;;;;;;;;15.75;15.75;;;;;10.75;82.37;101963.16;4935782;29;11542;-69
2021/10/21 02:46:23;;;;;;;;;18.25;18.25;;;;;10.67;82.07;101950.00;4935786;29;11512;-68
2021/10/21 02:49:04;;;;;;;;;17.25;16.50;;;;;10.94;81.96;101954.00;4936025;29;11516;-69
2021/10/21 02:52:00;;;;;;;;;19.75;19.75;;;;;10.91;81.60;101947.13;4935016;29;11559;-68
2021/10/21 02:54:55;;;;;;;;;19.75;19.50;;;;;10.89;81.89;101943.84;4935948;29;11566;-69
2021/10/21 02:57:51;;;;;;;;;15.00;15.00;;;;;10.91;82.27;101952.66;4935332;29;11563;-69
2021/10/21 03:00:46;;;;;;;;;17.25;16.50;;;;;10.93;82.09;101952.34;4935609;29;11521;-69
2021/10/21 03:03:42;;;;;;;;;21.25;19.75;;;;;10.92;82.16;101959.84;4935243;29;11530;-69
2021/10/21 03:06:37;;;;;;;;;18.00;18.00;;;;;10.92;82.23;101956.25;4935242;29;12272;-69
2021/10/21 03:09:33;;;;;;;;;18.50;18.50;;;;;10.98;82.23;101955.84;4935129;29;11529;-69
2021/10/21 03:12:29;;;;;;;;;18.50;18.25;;;;;10.97;82.55;101954.22;4935254;29;11539;-69
2021/10/21 03:15:26;;;;;;;;;20.25;19.25;;;;;10.97;82.44;101954.22;4923883;29;11513;-68
2021/10/21 03:18:21;;;;;;;;;16.25;16.25;;;;;10.99;82.42;101945.59;4923846;29;11508;-69
2021/10/21 03:21:17;;;;;;;;;18.75;18.75;;;;;10.99;82.63;101951.16;4935598;29;11547;-68
2021/10/21 03:24:13;;;;;;;;;19.25;18.50;;;;;10.91;82.35;101944.34;4911218;29;11560;-68
2021/10/21 03:27:08;;;;;;;;;16.25;16.25;;;;;10.98;82.50;101950.31;4910041;29;11547;-68
2021/10/21 03:30:06;;;;;;;;;21.75;21.25;;;;;10.89;83.35;101941.06;4928597;29;11701;-68
2021/10/21 03:33:02;;;;;;;;;30.25;30.25;;;;;10.97;82.58;101942.31;4934828;29;12302;-68
2021/10/21 03:35:29;;;;;;;;;34.25;34.25;;;;;10.94;82.80;101940.16;4935793;29;11567;-68
2021/10/21 03:38:25;;;;;;;;;35.25;33.75;;;;;10.91;83.05;101935.22;4934711;29;11549;-69
2021/10/21 03:41:21;;;;;;;;;34.50;32.50;;;;;10.93;83.14;101938.50;4934820;29;11599;-68
2021/10/21 03:44:16;;;;;;;;;35.75;29.00;;;;;10.85;83.55;101937.25;4934561;29;11525;-68
2021/10/21 03:47:12;;;;;;;;;36.50;34.75;;;;;10.90;83.53;101926.09;4934258;29;11521;-69
2021/10/21 03:49:40;;;;;;;;;30.75;29.50;;;;;10.94;83.50;101929.06;4914556;29;11581;-68
2021/10/21 03:52:36;;;;;;;;;21.25;20.25;;;;;10.85;84.39;101921.47;4934379;29;11555;-69
2021/10/21 03:55:31;;;;;;;;;24.50;24.50;;;;;10.80;84.68;101920.72;4934779;29;11512;-68
2021/10/21 03:58:27;;;;;;;;;20.75;20.25;;;;;10.97;84.59;101920.19;4934784;29;11543;-69
2021/10/21 04:01:22;;;;;;;;;20.50;20.50;;;;;10.90;85.14;101923.34;4933518;29;11530;-68
2021/10/21 04:04:18;;;;;;;;;18.00;18.00;;;;;10.96;85.14;101918.50;4934737;29;11527;-68
2021/10/21 04:07:13;;;;;;;;;24.25;24.25;;;;;10.92;85.83;101918.31;4929566;29;11542;-68
2021/10/21 04:09:55;;;;;;;;;19.50;19.50;;;;;11.03;85.41;101911.47;4934900;29;11582;-69
2021/10/21 04:12:50;;;;;;;;;26.25;21.25;;;;;11.11;85.28;101912.69;4935017;29;11557;-68
2021/10/21 04:15:47;;;;;;;;;20.00;20.00;;;;;10.97;86.73;101907.16;4934352;29;11547;-68
2021/10/21 04:18:42;;;;;;;;;26.00;25.25;;;;;11.11;85.96;101915.47;4934067;29;11545;-68
2021/10/21 04:21:38;;;;;;;;;21.50;21.50;;;;;11.19;86.12;101916.72;4936195;29;11551;-69
2021/10/21 04:24:33;;;;;;;;;21.75;21.00;;;;;11.26;85.75;101909.66;4938042;29;11594;-68
2021/10/21 04:27:29;;;;;;;;;19.50;19.50;;;;;11.24;86.19;101924.94;4925138;29;11634;-69
2021/10/21 04:30:25;;;;;;;;;16.75;16.75;;;;;11.30;86.28;101926.50;4937527;29;11507;-68
2021/10/21 04:33:20;;;;;;;;;21.25;21.25;;;;;11.29;86.50;101924.84;4937954;29;11541;-69
2021/10/21 04:35:49;;;;;;;;;22.00;22.00;;;;;11.28;86.32;101921.28;4938992;29;11532;-68
2021/10/21 04:38:44;;;;;;;;;25.50;23.00;;;;;11.45;85.82;101919.84;4937531;29;12292;-68
2021/10/21 04:41:40;;;;;;;;;21.50;21.50;;;;;11.54;85.29;101927.13;4938109;29;11620;-69
2021/10/21 04:44:35;;;;;;;;;21.00;21.00;;;;;11.48;85.68;101924.75;4937758;29;11641;-69
2021/10/21 04:47:32;;;;;;;;;23.50;20.75;;;;;11.64;85.18;101923.31;4928349;29;11566;-69
2021/10/21 04:50:27;;;;;;;;;28.00;27.00;;;;;11.51;85.00;101929.69;4932207;29;11417;-68
2021/10/21 04:53:23;;;;;;;;;21.50;20.25;;;;;11.64;84.78;101918.59;4937638;29;11515;-68
2021/10/21 04:56:19;;;;;;;;;19.25;19.25;;;;;11.64;84.50;101929.69;4937701;29;11380;-68
2021/10/21 04:59:14;;;;;;;;;19.00;18.75;;;;;11.78;83.99;101926.91;4936791;29;12103;-68
2021/10/21 05:02:10;;;;;;;;;20.25;20.25;;;;;11.91;83.98;101933.63;4933367;29;11575;-69
2021/10/21 05:05:06;;;;;;;;;23.25;22.50;;;;;12.00;83.24;101934.53;4928544;29;11497;-69
2021/10/21 05:08:03;;;;;;;;;21.00;20.50;;;;;12.13;82.48;101930.09;4924508;29;11429;-69
2021/10/21 05:10:41;;;;;;;;;20.25;20.00;;;;;11.96;82.88;101931.56;4942663;28;11323;-68
2021/10/21 05:13:37;;;;;;;;;23.25;20.00;;;;;12.18;81.71;101927.19;4939732;29;11087;-69
2021/10/21 05:16:32;;;;;;;;;16.75;16.75;;;;;12.31;81.60;101928.28;4924389;29;11151;-67
2021/10/21 05:19:00;;;;;;;;;21.25;21.25;;;;;12.35;80.76;101921.81;4937670;29;11794;-68
2021/10/21 05:21:56;;;;;;;;;22.50;22.25;;;;;12.36;80.83;101920.69;4937710;29;11299;-68
2021/10/21 05:24:28;;;;;;;;;16.00;16.00;;;;;12.11;81.83;101922.06;4937432;29;11921;-68
2021/10/21 05:26:55;;;;;;;;;20.75;19.00;;;;;12.51;80.63;101930.59;4930976;29;10838;-68
2021/10/21 05:29:51;;;;;;;;;21.25;18.25;;;;;12.37;81.29;101941.75;4917677;29;11149;-68
2021/10/21 05:32:19;;;;;;;;;18.50;18.50;;;;;12.44;80.40;101930.22;4913019;29;11018;-68
2021/10/21 05:34:46;;;;;;;;;19.50;19.50;;;;;12.68;81.73;101936.28;4918889;29;10832;-68
2021/10/21 05:37:42;;;;;;;;;18.75;18.75;;;;;12.92;81.05;101935.16;4917688;29;10860;-69
2021/10/21 05:40:38;;;;;;;;;17.50;17.00;;;;;12.98;79.50;101940.25;4917806;29;10917;-67
2021/10/21 05:43:33;;;;;;;;;15.50;15.50;;;;;12.94;79.95;101932.88;4916497;29;10815;-69
2021/10/21 05:46:29;;;;;;;;;16.00;16.00;;;;;13.15;79.86;101936.75;4916339;29;10701;-68
2021/10/21 05:48:58;;;;;;;;;15.50;14.25;;;;;12.99;79.94;101939.13;4918662;29;10582;-68
2021/10/21 05:51:54;;;;;;;;;15.25;15.25;;;;;13.44;79.22;101939.06;4918552;29;10817;-69
2021/10/21 05:54:49;;;;;;;;;16.00;15.00;;;;;13.27;78.06;101934.25;4915154;29;10446;-68
2021/10/21 05:57:45;;;;;;;;;15.00;15.00;;;;;13.45;79.00;101928.78;4917558;29;10519;-69
2021/10/21 06:00:41;;;;;;;;;17.75;17.75;;;;;13.71;79.99;101931.66;4913379;29;10624;-70
2021/10/21 06:03:37;;;;;;;;;29.50;21.75;;;;;14.02;82.06;101926.00;4914007;29;10442;-69
2021/10/21 06:06:06;;;;;;;;;21.50;21.50;;;;;13.76;80.01;101931.50;4918240;29;10807;-70
2021/10/21 06:09:03;;;;;;;;;16.25;15.75;;;;;13.92;75.45;101924.34;4917252;29;11286;-69
2021/10/21 06:11:58;;;;;;;;;16.75;16.75;;;;;13.87;75.19;101916.16;4917229;29;10377;-69
2021/10/21 06:14:54;;;;;;;;;11.00;11.00;;;;;13.86;75.99;101914.50;4917068;29;10291;-70
2021/10/21 06:17:50;;;;;;;;;19.25;19.25;;;;;13.91;75.25;101912.41;4914375;29;10367;-69
2021/10/21 06:20:45;;;;;;;;;14.00;14.00;;;;;13.96;74.41;101907.84;4916036;29;10400;-69
2021/10/21 06:23:27;;;;;;;;;17.75;17.75;;;;;14.05;74.13;101903.13;4930190;29;10171;-70
2021/10/21 06:26:23;;;;;;;;;19.50;19.50;;;;;13.96;73.92;101896.72;4906804;29;10226;-70
2021/10/21 06:29:19;;;;;;;;;18.50;18.50;;;;;13.97;74.28;101898.34;4932867;29;10321;-69
2021/10/21 06:32:16;;;;;;;;;16.00;16.00;;;;;14.05;74.09;101900.34;4935494;29;10135;-69
2021/10/21 06:34:44;;;;;;;;;17.00;17.00;;;;;14.33;75.04;101898.03;4936961;29;10106;-70
2021/10/21 06:37:39;;;;;;;;;14.50;14.50;;;;;14.49;73.22;101890.06;4926838;29;11066;-69
2021/10/21 06:40:35;;;;;;;;;19.25;19.25;;;;;14.53;73.42;101897.44;4931404;29;9973;-69
2021/10/21 06:43:31;;;;;;;;;17.00;17.00;;;;;14.77;72.18;101887.75;4935474;29;10070;-68
2021/10/21 06:46:00;;;;;;;;;11.50;11.50;;;;;14.43;72.03;101892.16;4920416;29;9964;-70
2021/10/21 06:48:29;;;;;;;;;15.50;15.50;;;;;14.63;72.13;101883.16;4924937;29;10084;-70
2021/10/21 06:51:25;;;;;;;;;18.50;18.50;;;;;14.92;71.83;101878.84;4923198;29;9885;-70
2021/10/21 06:53:53;;;;;;;;;17.75;17.75;;;;;15.02;70.72;101895.22;4936675;29;10065;-71
2021/10/21 06:56:21;;;;;;;;;15.50;15.50;;;;;14.88;70.44;101891.81;4936743;29;9925;-69
2021/10/21 06:58:49;;;;;;;;;14.00;14.00;;;;;14.65;70.67;101880.06;4936383;29;9794;-69
2021/10/21 07:01:17;;;;;;;;;18.25;18.25;;;;;15.05;71.26;101890.97;4936475;29;10608;-70
2021/10/21 07:03:46;;;;;;;;;12.50;12.50;;;;;15.29;69.94;101888.41;4936794;29;9740;-70
2021/10/21 07:06:14;;;;;;;;;12.00;12.00;;;;;15.54;68.85;101895.03;4936393;29;9803;-69
2021/10/21 07:08:46;;;;;;;;;16.75;15.75;;;;;15.52;69.26;101887.00;4935504;29;9711;-70
2021/10/21 07:11:15;;;;;;;;;18.00;15.67;;;;;15.68;69.02;101873.31;4936469;29;9578;-70
2021/10/21 07:13:52;;;;;;;;;16.25;15.00;;;;;15.73;68.37;101878.72;4936499;29;9531;-69
2021/10/21 07:16:21;;;;;;;;;11.00;11.00;;;;;15.59;68.83;101875.31;4936353;29;9664;-69
2021/10/21 07:18:50;;;;;;;;;13.75;13.75;;;;;15.67;67.89;101870.88;4936114;29;9515;-69
2021/10/21 07:21:18;;;;;;;;;14.67;14.67;;;;;15.86;67.65;101876.81;4935996;29;9398;-69
2021/10/21 07:23:47;;;;;;;;;12.00;12.00;;;;;15.83;66.60;101869.94;4935745;29;9390;-68
2021/10/21 07:26:15;;;;;;;;;13.50;13.50;;;;;15.93;66.96;101865.94;4919184;29;9291;-69
2021/10/21 07:28:43;;;;;;;;;15.00;12.33;;;;;15.68;67.11;101856.59;4935945;29;9418;-69
2021/10/21 07:31:15;;;;;;;;;8.00;7.67;;;;;15.85;66.16;101858.44;4936209;29;9420;-69
2021/10/21 07:33:43;;;;;;;;;13.00;13.00;;;;;15.74;66.72;101869.19;4934865;29;9475;-69
2021/10/21 07:36:11;;;;;;;;;6.00;6.00;;;;;16.03;66.22;101859.16;4936004;29;9301;-69
2021/10/21 07:38:40;;;;;;;;;16.00;16.00;;;;;16.34;65.34;101865.16;4935998;29;9315;-69
2021/10/21 07:41:08;;;;;;;;;9.00;9.00;;;;;15.99;66.25;101866.56;4919115;29;9295;-69
2021/10/21 07:43:37;;;;;;;;;12.33;12.33;;;;;16.10;65.38;101860.25;4935566;29;9832;-70
2021/10/21 07:46:06;;;;;;;;;11.67;11.67;;;;;16.31;64.69;101867.78;4936038;29;9084;-69
2021/10/21 07:48:34;;;;;;;;;13.00;13.00;;;;;16.48;64.36;101858.44;4918654;29;9189;-69
2021/10/21 07:51:02;;;;;;;;;13.00;13.00;;;;;16.72;62.90;101858.59;4936012;29;9317;-69
2021/10/21 07:53:31;;;;;;;;;13.67;13.67;;;;;16.90;62.23;101856.41;4935782;29;9114;-69
2021/10/21 07:56:01;;;;;;;;;9.67;9.33;;;;;16.97;61.87;101844.66;4934893;29;9750;-69
2021/10/21 07:58:30;;;;;;;;;7.50;7.50;;;;;16.88;61.42;101847.56;4935859;29;8968;-69
2021/10/21 08:00:58;;;;;;;;;12.00;12.00;;;;;16.89;62.11;101849.19;4935652;29;8876;-68
2021/10/21 08:03:27;;;;;;;;;13.50;12.00;;;;;16.90;59.72;101834.88;4936002;29;8888;-68
2021/10/21 08:05:56;;;;;;;;;10.00;10.00;;;;;16.90;59.93;101836.84;4928109;29;8845;-68
2021/10/21 08:08:24;;;;;;;;;12.00;11.00;;;;;16.93;60.28;101824.97;4934413;29;9587;-68
2021/10/21 08:10:52;;;;;;;;;7.75;7.75;;;;;17.05;59.92;101832.56;4935474;29;8937;-68
2021/10/21 08:13:19;;;;;;;;;10.25;10.25;;;;;17.34;59.48;101831.53;4935634;29;8853;-68
2021/10/21 08:15:48;;;;;;;;;10.75;10.75;;;;;17.22;59.85;101818.38;4935565;29;9650;-68
2021/10/21 08:18:16;;;;;;;;;9.25;9.25;;;;;16.95;58.96;101815.09;4935282;29;8849;-67
2021/10/21 08:20:44;;;;;;;;;9.00;9.00;;;;;17.31;58.12;101819.06;4935612;29;8865;-69
2021/10/21 08:23:12;;;;;;;;;8.00;8.00;;;;;17.35;57.90;101811.63;4935577;29;8900;-69
2021/10/21 08:25:40;;;;;;;;;9.00;9.00;;;;;17.27;58.83;101804.16;4935714;29;8857;-69
2021/10/21 08:28:09;;;;;;;;;7.00;7.00;;;;;17.54;57.93;101818.59;4934268;29;9800;-68
2021/10/21 08:31:04;;;;;;;;;8.50;8.50;;;;;17.51;56.47;101815.34;4920131;29;8946;-69
2021/10/21 08:33:33;;;;;;;;;11.25;10.50;;;;;17.44;56.73;101806.72;4914977;29;8881;-69
2021/10/21 08:36:29;;;;;;;;;8.25;7.25;;;;;17.67;55.79;101804.25;4934673;29;8976;-70
2021/10/21 08:39:24;;;;;;;;;7.75;7.75;;;;;17.71;55.39;101809.97;4932273;29;8946;-69
2021/10/21 08:42:20;;;;;;;;;7.00;7.00;;;;;17.99;55.08;101802.44;4934341;29;8853;-70
2021/10/21 08:45:17;;;;;;;;;6.50;6.50;;;;;18.06;53.60;101804.63;4921040;29;8857;-71
2021/10/21 08:48:13;;;;;;;;;6.00;6.00;;;;;18.13;53.72;101807.66;4935490;29;8947;-70
2021/10/21 08:51:09;;;;;;;;;7.50;6.50;;;;;18.27;53.05;101794.06;4922227;29;8872;-69
2021/10/21 08:54:05;;;;;;;;;7.75;7.50;;;;;18.49;52.66;101794.66;4930006;29;8845;-70
2021/10/21 08:57:00;;;;;;;;;6.50;6.50;;;;;18.76;50.94;101779.00;4913714;29;8849;-69
2021/10/21 08:59:56;;;;;;;;;8.00;8.00;;;;;18.68;51.76;101778.00;4931618;29;8967;-69
2021/10/21 09:02:35;;;;;;;;;6.50;6.50;;;;;18.71;51.25;101776.44;4933483;29;8846;-69
2021/10/21 09:05:37;;;;;;;;;6.25;6.25;;;;;18.70;50.24;101761.63;4933520;29;8960;-68
2021/10/21 09:08:42;;;;;;;;;8.00;8.00;;;;;19.02;50.06;101762.47;4934483;29;8876;-68
2021/10/21 09:11:22;;;;;;;;;6.00;6.00;;;;;18.75;49.98;101766.97;4935239;29;8872;-69
2021/10/21 09:14:17;;;;;;;;;7.25;7.25;;;;;18.78;49.67;101755.03;4925909;29;8861;-69
2021/10/21 09:17:00;;;;;;;;;6.25;6.25;;;;;19.30;49.04;101753.09;4934260;29;8840;-70
2021/10/21 09:19:30;;;;;;;;;7.25;7.25;;;;;19.16;48.84;101761.97;4919576;29;8973;-69
2021/10/21 09:22:21;;;;;;;;;7.00;7.00;;;;;19.36;48.01;101746.03;4927374;29;8933;-69
2021/10/21 09:24:49;;;;;;;;;8.75;7.00;;;;;19.30;47.25;101742.69;4935703;29;8861;-68
2021/10/21 09:27:20;;;;;;;;;4.00;4.00;;;;;19.54;46.26;101741.63;4938275;29;8919;-70
2021/10/21 09:30:23;;;;;;;;;5.00;5.00;;;;;19.54;45.95;101735.22;4923754;29;8857;-70
2021/10/21 09:33:18;;;;;;;;;3.00;3.00;;;;;19.55;45.63;101729.25;4925510;29;8864;-67
2021/10/21 09:36:21;;;;;;;;;6.25;6.25;;;;;19.44;45.12;101726.19;4936440;29;8869;-67
2021/10/21 09:39:17;;;;;;;;;3.25;3.25;;;;;19.49;44.93;101738.31;4918189;29;8859;-69
2021/10/21 09:42:09;;;;;;;;;8.00;8.00;;;;;19.58;44.00;101733.34;4910143;29;8971;-67
2021/10/21 09:45:23;;;;;;;;;2.50;2.50;;;;;19.86;43.32;101708.69;4935322;29;8888;-67
2021/10/21 09:48:20;;;;;;;;;4.00;4.00;;;;;19.78;43.36;101712.50;4928604;29;8861;-68
2021/10/21 09:50:48;;;;;;;;;5.50;5.50;;;;;19.75;43.58;101695.59;4931234;29;8849;-68
2021/10/21 09:53:44;;;;;;;;;5.00;5.00;;;;;19.62;44.11;101690.13;4935083;29;8870;-69
2021/10/21 09:57:05;;;;;;;;;4.25;4.00;;;;;19.29;43.83;101695.38;4936180;29;8833;-68
2021/10/21 10:00:03;;;;;;;;;5.25;5.00;;;;;19.07;44.82;101696.88;4935227;29;8861;-68
2021/10/21 10:02:35;;;;;;;;;4.00;4.00;;;;;19.08;44.91;101682.50;4933591;29;8971;-68
2021/10/21 10:05:31;;;;;;;;;3.25;3.25;;;;;19.48;44.19;101689.81;4935791;29;8849;-70
2021/10/21 10:08:30;;;;;;;;;3.75;3.75;;;;;19.53;43.55;101678.28;4925286;29;8841;-68
2021/10/21 10:11:26;;;;;;;;;5.00;5.00;;;;;19.41;43.81;101681.25;4935738;29;8857;-70
2021/10/21 10:14:09;;;;;;;;;5.00;5.00;;;;;19.47;43.25;101668.53;4937206;29;8943;-70
2021/10/21 10:17:05;;;;;;;;;3.00;3.00;;;;;19.82;42.91;101673.31;4929607;29;8834;-69
2021/10/21 10:19:34;;;;;;;;;3.00;3.00;;;;;19.65;42.69;101657.72;4934734;29;8845;-69
2021/10/21 10:22:33;;;;;;;;;4.50;3.75;;;;;19.36;42.78;101645.88;4904787;29;8876;-70
2021/10/21 10:25:29;;;;;;;;;4.00;4.00;;;;;19.53;42.48;101655.84;4932288;29;8934;-69
2021/10/21 10:28:25;;;;;;;;;4.25;4.25;;;;;19.44;43.07;101641.22;4927342;29;8865;-70
2021/10/21 10:31:38;;;;;;;;;3.00;3.00;;;;;19.78;42.88;101633.91;4929461;29;9047;-69
2021/10/21 10:34:35;;;;;;;;;3.00;3.00;;;;;19.73;41.82;101639.84;4933081;29;8853;-68
2021/10/21 10:37:17;;;;;;;;;3.50;3.50;;;;;19.95;42.17;101638.28;4915076;29;8855;-68
2021/10/21 10:40:13;;;;;;;;;5.50;5.25;;;;;19.71;42.17;101629.00;4908263;29;9009;-68
2021/10/21 10:42:52;;;;;;;;;3.50;3.50;;;;;19.74;42.33;101626.63;4928152;29;8882;-68
2021/10/21 10:45:51;;;;;;;;;1.75;1.75;;;;;20.25;40.98;101625.19;4920225;29;8885;-69
2021/10/21 10:48:52;;;;;;;;;3.75;3.75;;;;;20.08;40.97;101614.44;4921756;29;8892;-68
2021/10/21 10:51:57;;;;;;;;;5.50;4.50;;;;;19.81;41.03;101607.94;4932153;29;8956;-70
2021/10/21 10:54:56;;;;;;;;;5.00;5.00;;;;;19.63;41.64;101616.00;4914600;29;8889;-68
2021/10/21 10:57:53;;;;;;;;;5.25;5.25;;;;;20.06;41.80;101610.38;4935704;29;8849;-69
2021/10/21 11:00:38;;;;;;;;;2.25;2.25;;;;;20.14;41.66;101601.72;4936114;29;8877;-69
2021/10/21 11:03:42;;;;;;;;;4.00;4.00;;;;;20.14;41.40;101589.66;4925572;29;8871;-68
2021/10/21 11:06:24;;;;;;;;;4.00;4.00;;;;;20.16;41.48;101602.13;4932723;29;8848;-68
2021/10/21 11:09:05;;;;;;;;;3.75;3.75;;;;;20.51;41.37;101609.59;4929310;29;8987;-69
2021/10/21 11:11:47;;;;;;;;;5.25;5.25;;;;;20.73;40.68;101582.63;4924678;29;8866;-68
2021/10/21 11:14:20;;;;;;;;;4.00;4.00;;;;;20.83;40.92;101577.16;4929330;29;8886;-69
2021/10/21 11:17:42;;;;;;;;;4.25;4.25;;;;;20.67;40.72;101584.97;4927817;29;8859;-68
2021/10/21 11:20:31;;;;;;;;;4.75;4.75;;;;;20.92;40.47;101579.69;4923095;29;8878;-69
2021/10/21 11:23:28;;;;;;;;;4.00;4.00;;;;;20.85;40.45;101568.34;4933658;29;8991;-69
2021/10/21 11:26:05;;;;;;;;;5.25;3.50;;;;;20.73;40.76;101565.78;4932872;29;8849;-68
2021/10/21 11:28:35;;;;;;;;;3.00;3.00;;;;;20.82;40.62;101558.69;4928624;29;8991;-69
2021/10/21 11:31:33;;;;;;;;;5.50;5.50;;;;;20.59;41.09;101543.06;4916554;29;8941;-69
2021/10/21 11:34:10;;;;;;;;;2.25;2.25;;;;;20.73;40.99;101535.66;4936100;29;8849;-69
2021/10/21 11:36:46;;;;;;;;;4.75;4.75;;;;;20.02;42.36;101542.13;4932789;29;8861;-68
2021/10/21 11:39:13;;;;;;;;;4.75;4.75;;;;;20.76;41.45;101531.28;4936034;29;8849;-69
2021/10/21 11:41:41;;;;;;;;;5.00;5.00;;;;;20.31;41.94;101540.59;4916061;29;8965;-69
2021/10/21 11:44:18;;;;;;;;;4.25;4.25;;;;;20.48;41.38;101529.69;4911324;29;8882;-69
2021/10/21 11:47:13;;;;;;;;;5.00;5.00;;;;;20.56;41.21;101536.22;4915851;29;8913;-69
2021/10/21 11:49:41;;;;;;;;;4.00;4.00;;;;;19.93;42.04;101539.56;4923694;29;8880;-69
2021/10/21 11:52:11;;;;;;;;;3.50;3.50;;;;;20.37;41.35;101533.47;4935640;29;8871;-68
2021/10/21 11:55:18;;;;;;;;;4.00;4.00;;;;;20.80;40.50;101515.28;4935142;29;8877;-69
2021/10/21 11:57:47;;;;;;;;;4.00;4.00;;;;;20.76;40.63;101518.03;4934800;29;8873;-69
2021/10/21 12:00:49;;;;;;;;;5.50;5.50;;;;;21.17;40.59;101523.00;4925680;29;8853;-69
2021/10/21 12:03:17;;;;;;;;;5.00;5.00;;;;;20.95;40.23;101510.66;4937084;29;8848;-68
2021/10/21 12:06:16;;;;;;;;;5.00;5.00;;;;;21.17;39.45;101520.19;4946021;29;8871;-69
2021/10/21 12:09:11;;;;;;;;;4.50;4.50;;;;;20.83;40.19;101509.69;4935816;29;8837;-69
2021/10/21 12:12:11;;;;;;;;;3.00;3.00;;;;;20.92;39.72;101497.34;4933037;29;8861;-70
2021/10/21 12:14:44;;;;;;;;;4.25;4.25;;;;;21.13;39.53;101496.81;4936393;29;8865;-69
2021/10/21 12:17:40;;;;;;;;;3.00;3.00;;;;;21.29;39.47;101484.16;4934266;29;8879;-69
2021/10/21 12:20:42;;;;;;;;;3.25;3.25;;;;;21.07;40.20;101485.88;4930480;29;8839;-69
2021/10/21 12:23:43;;;;;;;;;4.75;4.00;;;;;20.55;41.18;101495.25;4929036;29;8849;-69
2021/10/21 12:26:39;;;;;;;;;3.75;3.75;;;;;20.34;41.70;101492.09;4920666;29;8983;-69
2021/10/21 12:29:43;;;;;;;;;6.50;6.50;;;;;20.62;41.11;101495.34;4928037;29;8857;-69
2021/10/21 12:32:38;;;;;;;;;1.00;1.00;;;;;20.38;41.98;101470.47;4922223;29;8878;-69
2021/10/21 12:35:35;;;;;;;;;2.50;2.50;;;;;19.89;42.88;101479.75;4928327;29;8853;-69
2021/10/21 12:38:41;;;;;;;;;3.00;3.00;;;;;19.96;43.49;101472.25;4930053;29;9766;-69
2021/10/21 12:41:47;;;;;;;;;3.25;3.25;;;;;19.85;44.03;101476.06;4931405;29;8857;-69
2021/10/21 12:44:44;;;;;;;;;4.00;4.00;;;;;19.71;43.96;101483.06;4934828;29;8865;-69
2021/10/21 12:47:40;;;;;;;;;3.00;3.00;;;;;19.77;43.62;101466.72;4910892;29;8864;-68
2021/10/21 12:50:36;;;;;;;;;4.25;4.25;;;;;19.48;43.99;101462.59;4914747;29;8952;-69
2021/10/21 12:53:31;;;;;;;;;7.00;5.50;;;;;19.70;43.22;101473.00;4910727;29;8869;-69
2021/10/21 12:56:28;;;;;;;;;4.00;4.00;;;;;19.83;43.31;101458.78;4931365;29;8939;-68